Time;durP1;ratioP1;P1;durP2;ratioP2;P2;SDS_P1;SDS_P2;PMS_P1;PMS_P2;Temp;Humidity;BMP_temperature;BMP_pressure;BME280_temperature;BME280_humidity;BME280_pressure;Samples;Min_cycle;Max_cycle;Signal;HPM_P1;HPM_P2
2022/04/08 00:00:16;;;;;;;3.40;2.17;;;;;;;9.63;100.00;93724.66;5065420;28;20047;-47
2022/04/08 00:02:43;;;;;;;10.30;3.22;;;;;;;9.59;100.00;93715.03;5065110;28;20430;-50
2022/04/08 00:05:11;;;;;;;4.70;2.50;;;;;;;9.64;100.00;93726.22;5064870;28;20671;-49
2022/04/08 00:07:37;;;;;;;5.15;3.33;;;;;;;9.65;100.00;93735.59;5063776;28;20048;-46
2022/04/08 00:10:05;;;;;;;4.03;2.70;;;;;;;9.66;100.00;93739.75;5063468;28;20094;-46
2022/04/08 00:12:31;;;;;;;3.58;2.08;;;;;;;9.66;100.00;93739.75;5063607;28;20040;-49
2022/04/08 00:14:59;;;;;;;4.57;2.33;;;;;;;9.68;100.00;93736.91;5063566;28;20555;-47
2022/04/08 00:17:26;;;;;;;4.78;2.55;;;;;;;9.73;100.00;93739.53;5062131;28;20537;-48
2022/04/08 00:19:52;;;;;;;4.43;2.38;;;;;;;9.69;100.00;93739.25;5062676;28;20432;-48
2022/04/08 00:22:21;;;;;;;4.03;2.50;;;;;;;9.70;100.00;93735.59;5063619;28;20053;-47
2022/04/08 00:24:47;;;;;;;5.30;2.97;;;;;;;9.71;100.00;93737.19;5063162;28;20086;-50
2022/04/08 00:27:14;;;;;;;3.33;1.80;;;;;;;9.73;100.00;93745.50;5064331;28;20049;-49
2022/04/08 00:29:41;;;;;;;4.32;2.78;;;;;;;9.75;100.00;93745.28;5065762;28;20383;-50
2022/04/08 00:32:08;;;;;;;3.97;2.00;;;;;;;9.73;100.00;93750.72;5063832;28;20486;-51
2022/04/08 00:34:35;;;;;;;3.70;2.22;;;;;;;9.74;100.00;93754.91;5064841;28;20779;-49
2022/04/08 00:37:02;;;;;;;4.55;3.13;;;;;;;9.72;100.00;93749.16;5067730;28;20051;-46
2022/04/08 00:39:29;;;;;;;3.92;1.92;;;;;;;9.71;100.00;93742.38;5067963;28;20056;-45
2022/04/08 00:41:59;;;;;;;4.05;2.40;;;;;;;9.72;100.00;93754.38;5067504;28;20048;-46
2022/04/08 00:44:26;;;;;;;6.72;2.10;;;;;;;9.70;100.00;93755.63;5068448;28;20495;-50
2022/04/08 00:46:52;;;;;;;7.43;2.42;;;;;;;9.71;100.00;93763.19;5066940;28;20052;-51
2022/04/08 00:49:19;;;;;;;5.85;2.72;;;;;;;9.68;100.00;93768.88;5066689;28;20507;-45
2022/04/08 00:51:46;;;;;;;5.80;2.47;;;;;;;9.64;100.00;93757.44;5068291;28;20481;-46
2022/04/08 00:54:13;;;;;;;3.50;2.58;;;;;;;9.62;100.00;93754.28;5066992;28;20043;-48
2022/04/08 00:56:41;;;;;;;8.23;2.03;;;;;;;9.59;100.00;93765.19;5070312;28;20495;-47
2022/04/08 00:59:08;;;;;;;3.95;2.42;;;;;;;9.59;100.00;93760.00;5066308;28;20047;-45
2022/04/08 01:01:35;;;;;;;5.65;2.80;;;;;;;9.54;100.00;93763.34;5066184;28;20110;-46
2022/04/08 01:04:02;;;;;;;4.25;2.13;;;;;;;9.50;100.00;93751.09;5067871;28;20048;-48
2022/04/08 01:06:29;;;;;;;6.97;3.25;;;;;;;9.61;100.00;93755.31;5065522;28;20044;-46
2022/04/08 01:08:55;;;;;;;4.93;2.78;;;;;;;9.53;100.00;93748.00;5065128;28;20044;-52
2022/04/08 01:11:23;;;;;;;7.15;3.42;;;;;;;9.59;100.00;93765.19;5066412;28;20111;-47
2022/04/08 01:13:51;;;;;;;5.72;2.58;;;;;;;9.50;100.00;93762.25;5066541;28;20044;-48
2022/04/08 01:16:19;;;;;;;14.13;4.50;;;;;;;9.48;100.00;93759.13;5067914;28;20586;-46
2022/04/08 01:18:46;;;;;;;3.78;2.63;;;;;;;9.43;100.00;93766.91;5067128;28;20055;-48
2022/04/08 01:21:13;;;;;;;7.43;3.60;;;;;;;9.37;100.00;93766.09;5066112;28;20054;-47
2022/04/08 01:23:46;;;;;;;8.00;3.47;;;;;;;9.34;100.00;93758.78;5066018;28;20032;-46
2022/04/08 01:26:13;;;;;;;6.40;3.53;;;;;;;9.31;100.00;93769.69;5065188;28;20843;-50
2022/04/08 01:28:42;;;;;;;7.97;3.13;;;;;;;9.26;100.00;93764.44;5065881;28;20463;-50
2022/04/08 01:31:09;;;;;;;5.93;3.05;;;;;;;9.23;100.00;93766.75;5065375;28;20460;-47
2022/04/08 01:33:35;;;;;;;11.40;4.38;;;;;;;9.18;100.00;93775.28;5067424;28;20119;-47
2022/04/08 01:36:02;;;;;;;9.35;4.38;;;;;;;9.21;100.00;93785.19;5065360;28;20059;-47
2022/04/08 01:38:29;;;;;;;8.40;3.28;;;;;;;9.21;100.00;93777.38;5067172;28;20056;-47
2022/04/08 01:40:56;;;;;;;8.38;3.25;;;;;;;9.21;100.00;93785.19;5067119;28;20797;-48
2022/04/08 01:43:23;;;;;;;7.20;3.53;;;;;;;9.17;100.00;93784.13;5065959;28;20697;-48
2022/04/08 01:45:49;;;;;;;5.65;3.13;;;;;;;9.06;100.00;93774.69;5066924;28;20490;-48
2022/04/08 01:48:17;;;;;;;6.88;3.65;;;;;;;9.11;100.00;93785.09;5065045;28;20053;-48
2022/04/08 01:50:44;;;;;;;4.20;2.78;;;;;;;9.08;100.00;93798.59;5065838;28;20110;-46
2022/04/08 01:53:13;;;;;;;5.10;3.28;;;;;;;8.99;100.00;93793.81;5065826;28;20501;-47
2022/04/08 01:55:40;;;;;;;7.10;3.80;;;;;;;8.87;100.00;93793.19;5065556;28;20048;-46
2022/04/08 01:58:07;;;;;;;5.00;3.40;;;;;;;8.84;100.00;93796.28;5065877;28;20044;-46
2022/04/08 02:00:34;;;;;;;8.20;3.58;;;;;;;8.79;100.00;93791.06;5065143;28;20059;-48
2022/04/08 02:03:01;;;;;;;4.70;3.00;;;;;;;8.69;100.00;93793.53;5065355;28;20072;-48
2022/04/08 02:05:27;;;;;;;5.72;3.13;;;;;;;8.65;100.00;93792.47;5066011;28;20462;-50
2022/04/08 02:07:54;;;;;;;9.60;3.13;;;;;;;8.59;100.00;93800.19;5066411;28;20044;-47
2022/04/08 02:10:23;;;;;;;4.70;2.95;;;;;;;8.54;100.00;93802.72;5068226;28;20055;-49
2022/04/08 02:12:50;;;;;;;6.68;3.17;;;;;;;8.49;100.00;93800.06;5064051;28;20036;-45
2022/04/08 02:15:28;;;;;;;4.28;2.50;;;;;;;8.47;100.00;93802.13;5067088;28;20048;-51
2022/04/08 02:17:55;;;;;;;8.35;2.13;;;;;;;8.42;100.00;93800.25;5065170;28;20056;-49
2022/04/08 02:20:23;;;;;;;4.03;2.30;;;;;;;8.40;100.00;93796.31;5065554;28;20487;-51
2022/04/08 02:22:50;;;;;;;10.43;3.15;;;;;;;8.40;100.00;93797.09;5065039;28;20068;-46
2022/04/08 02:25:17;;;;;;;7.78;2.33;;;;;;;8.40;100.00;93802.28;5068544;28;20098;-48
2022/04/08 02:27:44;;;;;;;3.65;2.25;;;;;;;8.34;100.00;93786.91;5066100;28;20037;-48
2022/04/08 02:30:12;;;;;;;8.68;2.83;;;;;;;8.33;100.00;93785.31;5066477;28;20036;-48
2022/04/08 02:32:39;;;;;;;7.10;2.28;;;;;;;8.26;100.00;93784.72;5065534;28;20933;-47
2022/04/08 02:35:06;;;;;;;4.03;2.40;;;;;;;8.26;100.00;93795.09;5064964;28;20043;-49
2022/04/08 02:37:33;;;;;;;7.43;2.65;;;;;;;8.20;100.00;93802.81;5066396;28;20575;-46
2022/04/08 02:39:59;;;;;;;8.25;2.90;;;;;;;8.21;100.00;93807.00;5064815;28;20165;-47
2022/04/08 02:42:30;;;;;;;6.03;2.33;;;;;;;8.17;100.00;93811.06;5064449;28;20032;-50
2022/04/08 02:44:57;;;;;;;4.45;2.08;;;;;;;8.21;100.00;93814.78;5064695;28;20048;-48
2022/04/08 02:47:24;;;;;;;4.45;1.77;;;;;;;8.24;100.00;93819.47;5065267;28;20070;-50
2022/04/08 02:49:51;;;;;;;4.20;2.70;;;;;;;8.16;100.00;93822.47;5064887;28;20044;-50
2022/04/08 02:52:18;;;;;;;6.90;2.08;;;;;;;8.23;100.00;93827.50;5064011;28;20044;-45
2022/04/08 02:54:44;;;;;;;6.50;2.38;;;;;;;8.26;100.00;93831.41;5064555;28;20040;-46
2022/04/08 02:57:11;;;;;;;6.28;2.90;;;;;;;8.27;100.00;93827.81;5064028;28;20124;-46
2022/04/08 02:59:38;;;;;;;5.30;3.88;;;;;;;8.21;100.00;93838.13;5064744;28;20067;-46
2022/04/08 03:02:05;;;;;;;2.28;1.48;;;;;;;8.23;100.00;93838.66;5063735;28;20070;-46
2022/04/08 03:04:32;;;;;;;4.78;1.90;;;;;;;8.26;100.00;93839.19;5064362;28;20123;-47
2022/04/08 03:07:01;;;;;;;5.88;1.80;;;;;;;8.27;100.00;93843.38;5064617;28;20405;-46
2022/04/08 03:09:28;;;;;;;2.92;1.48;;;;;;;8.23;100.00;93843.06;5064381;28;20052;-48
2022/04/08 03:11:54;;;;;;;3.83;1.67;;;;;;;8.24;100.00;93855.78;5063781;28;20044;-48
2022/04/08 03:14:21;;;;;;;3.40;1.63;;;;;;;8.22;100.00;93852.63;5063759;28;20044;-47
2022/04/08 03:16:48;;;;;;;2.75;1.88;;;;;;;8.21;100.00;93853.69;5063612;28;20106;-47
2022/04/08 03:19:15;;;;;;;7.60;2.10;;;;;;;8.19;100.00;93854.94;5063844;28;20052;-45
2022/04/08 03:21:41;;;;;;;2.78;1.80;;;;;;;8.18;100.00;93861.94;5065175;28;20048;-50
2022/04/08 03:24:10;;;;;;;3.08;2.08;;;;;;;8.16;100.00;93863.97;5063988;28;20465;-46
2022/04/08 03:26:37;;;;;;;4.43;1.70;;;;;;;8.19;100.00;93873.09;5064002;28;20044;-50
2022/04/08 03:29:04;;;;;;;2.55;1.60;;;;;;;8.14;100.00;93886.78;5065013;28;20070;-49
2022/04/08 03:31:31;;;;;;;5.05;1.77;;;;;;;8.11;100.00;93866.50;5063040;28;20045;-50
2022/04/08 03:33:58;;;;;;;4.05;1.98;;;;;;;8.04;100.00;93881.44;5064779;28;20117;-48
2022/04/08 03:36:24;;;;;;;5.32;1.40;;;;;;;7.80;100.00;93845.34;5058671;28;20101;-50
2022/04/08 03:38:51;;;;;;;4.65;1.75;;;;;;;8.03;100.00;93879.88;5062544;28;20056;-50
2022/04/08 03:41:18;;;;;;;3.00;1.70;;;;;;;8.06;100.00;93884.59;5061878;28;20046;-49
2022/04/08 03:43:44;;;;;;;3.53;1.33;;;;;;;7.99;100.00;93879.56;5064486;28;20065;-51
2022/04/08 03:46:13;;;;;;;4.93;2.75;;;;;;;8.08;100.00;93895.50;5062110;28;20052;-52
2022/04/08 03:48:43;;;;;;;3.78;1.65;;;;;;;8.07;100.00;93893.94;5065692;28;20056;-50
2022/04/08 03:51:10;;;;;;;2.75;1.90;;;;;;;8.12;100.00;93909.59;5064481;28;20143;-49
2022/04/08 03:53:36;;;;;;;2.72;1.50;;;;;;;8.15;100.00;93909.09;5058746;28;20783;-51
2022/04/08 03:56:05;;;;;;;4.10;1.52;;;;;;;8.15;100.00;93911.69;5061194;28;20044;-48
2022/04/08 03:58:32;;;;;;;2.47;0.90;;;;;;;8.16;100.00;93915.84;5060417;28;20099;-50
2022/04/08 04:00:58;;;;;;;1.83;1.25;;;;;;;8.17;100.00;93922.59;5061204;28;20477;-52
2022/04/08 04:03:25;;;;;;;7.40;1.30;;;;;;;8.13;100.00;93926.69;5061499;28;20037;-48
2022/04/08 04:05:52;;;;;;;6.13;1.05;;;;;;;8.13;100.00;93931.88;5045794;28;20695;-48
2022/04/08 04:08:19;;;;;;;2.63;1.30;;;;;;;8.15;100.00;93934.25;5063548;28;20044;-46
2022/04/08 04:10:47;;;;;;;4.43;2.00;;;;;;;8.17;100.00;93938.16;5064297;28;20063;-48
2022/04/08 04:13:14;;;;;;;8.50;1.92;;;;;;;8.16;100.00;93941.03;5063395;28;20037;-46
2022/04/08 04:15:41;;;;;;;5.78;2.08;;;;;;;8.16;100.00;93946.97;5062853;28;20045;-51
2022/04/08 04:18:08;;;;;;;1.80;1.13;;;;;;;8.18;100.00;93950.13;5065587;28;20059;-51
2022/04/08 04:20:36;;;;;;;5.75;1.50;;;;;;;8.19;100.00;93951.72;5063938;28;20048;-50
2022/04/08 04:23:03;;;;;;;6.60;1.70;;;;;;;8.27;100.00;93962.72;5059983;28;20036;-52
2022/04/08 04:25:29;;;;;;;2.88;1.88;;;;;;;8.30;100.00;93970.00;5064439;28;20070;-50
2022/04/08 04:27:56;;;;;;;1.95;0.88;;;;;;;8.30;100.00;93977.78;5061577;28;20130;-51
2022/04/08 04:30:27;;;;;;;2.88;1.17;;;;;;;8.31;100.00;93984.56;5065723;28;20056;-51
2022/04/08 04:32:55;;;;;;;4.93;1.50;;;;;;;8.34;100.00;93991.88;5064998;28;20116;-50
2022/04/08 04:35:22;;;;;;;4.45;2.03;;;;;;;8.37;100.00;93984.41;5070196;28;20502;-49
2022/04/08 04:37:48;;;;;;;4.93;1.50;;;;;;;8.42;100.00;93984.47;5059914;28;20048;-50
2022/04/08 04:40:15;;;;;;;3.53;2.45;;;;;;;8.36;100.00;93982.03;5065362;28;20044;-49
2022/04/08 04:42:42;;;;;;;2.70;1.38;;;;;;;8.49;100.00;93999.88;5066458;28;21238;-47
2022/04/08 04:45:10;;;;;;;5.93;1.40;;;;;;;8.55;100.00;93991.16;5062463;28;20048;-51
2022/04/08 04:47:38;;;;;;;3.83;2.30;;;;;;;8.63;100.00;93996.97;5066439;28;20533;-49
2022/04/08 04:50:05;;;;;;;6.60;1.25;;;;;;;8.72;100.00;93998.91;5061972;28;20049;-47
2022/04/08 04:52:32;;;;;;;2.03;0.90;;;;;;;8.69;100.00;93996.00;5059205;28;20468;-50
2022/04/08 04:54:58;;;;;;;3.30;1.25;;;;;;;8.77;100.00;94013.78;5065366;28;20048;-48
2022/04/08 04:57:26;;;;;;;2.67;1.10;;;;;;;8.81;100.00;94027.84;5056400;28;20989;-47
2022/04/08 04:59:53;;;;;;;2.78;1.00;;;;;;;8.85;100.00;94030.75;5065151;28;20429;-51
2022/04/08 05:02:20;;;;;;;5.13;1.33;;;;;;;8.86;100.00;94035.72;5063811;28;20051;-45
2022/04/08 05:04:47;;;;;;;5.63;1.30;;;;;;;8.92;100.00;94047.75;5063439;28;20497;-48
2022/04/08 05:07:13;;;;;;;3.47;1.98;;;;;;;9.01;100.00;94050.72;5068164;28;20048;-48
2022/04/08 05:09:41;;;;;;;6.65;1.65;;;;;;;9.07;100.00;94043.78;5062831;28;20040;-48
2022/04/08 05:12:08;;;;;;;5.15;1.38;;;;;;;9.12;99.54;94049.03;5063298;28;20044;-48
2022/04/08 05:14:36;;;;;;;2.63;1.23;;;;;;;9.21;99.75;94045.00;5065607;28;20040;-47
2022/04/08 05:17:03;;;;;;;1.40;1.20;;;;;;;9.28;99.18;94056.00;5065666;28;20048;-45
2022/04/08 05:19:30;;;;;;;1.50;1.00;;;;;;;9.36;98.57;94062.56;5062726;28;20570;-50
2022/04/08 05:21:56;;;;;;;4.93;2.15;;;;;;;9.45;96.62;94055.16;5066945;28;20052;-50
2022/04/08 05:24:23;;;;;;;7.28;1.88;;;;;;;9.55;96.63;94074.25;5067469;28;20533;-49
2022/04/08 05:26:50;;;;;;;2.08;0.98;;;;;;;9.64;96.03;94079.81;5064921;28;22992;-50
2022/04/08 05:29:17;;;;;;;5.55;0.90;;;;;;;9.73;95.19;94088.75;5066533;28;20044;-48
2022/04/08 05:31:43;;;;;;;3.58;0.98;;;;;;;9.77;95.17;94086.44;5068438;28;20570;-53
2022/04/08 05:34:10;;;;;;;5.95;1.15;;;;;;;9.85;95.19;94087.81;5067822;28;20454;-50
2022/04/08 05:36:37;;;;;;;4.68;1.42;;;;;;;9.92;93.76;94091.03;5063848;28;20550;-47
2022/04/08 05:39:04;;;;;;;2.10;0.60;;;;;;;10.00;92.14;94097.63;5067958;28;20048;-48
2022/04/08 05:41:30;;;;;;;5.53;1.17;;;;;;;10.04;91.47;94093.50;5068860;28;20124;-49
2022/04/08 05:43:57;;;;;;;9.90;1.98;;;;;;;10.08;92.00;94074.56;5066958;28;20141;-48
2022/04/08 05:46:24;;;;;;;6.32;2.55;;;;;;;10.28;93.06;94099.19;5063676;28;20045;-49
2022/04/08 05:48:51;;;;;;;3.75;2.15;;;;;;;10.37;90.96;94097.75;5064037;28;20048;-48
2022/04/08 05:51:17;;;;;;;3.38;2.10;;;;;;;10.42;91.96;94099.59;5063829;28;20044;-48
2022/04/08 05:54:00;;;;;;;9.40;2.45;;;;;;;10.51;92.25;94101.53;5063523;28;20733;-45
2022/04/08 05:56:27;;;;;;;3.25;1.98;;;;;;;10.60;91.03;94106.25;5063841;28;20098;-50
2022/04/08 05:58:54;;;;;;;3.22;1.25;;;;;;;10.61;89.38;94102.63;5063526;28;20494;-50
2022/04/08 06:01:21;;;;;;;4.53;0.60;;;;;;;10.63;89.49;94108.38;5063342;28;20571;-48
2022/04/08 06:03:48;;;;;;;4.13;2.50;;;;;;;10.70;90.33;94127.19;5063537;28;20040;-47
2022/04/08 06:06:14;;;;;;;1.77;1.17;;;;;;;10.76;89.90;94120.97;5063628;28;20055;-50
2022/04/08 06:08:41;;;;;;;1.20;0.90;;;;;;;10.70;88.28;94122.75;5063558;28;20072;-49
2022/04/08 06:11:08;;;;;;;3.72;0.90;;;;;;;10.74;89.30;94120.44;5062445;28;20048;-46
2022/04/08 06:13:34;;;;;;;1.67;1.15;;;;;;;10.77;87.64;94106.91;5062403;28;20064;-49
2022/04/08 06:16:01;;;;;;;2.83;1.70;;;;;;;10.80;87.88;94111.63;5065335;28;20071;-50
2022/04/08 06:18:28;;;;;;;2.13;1.20;;;;;;;10.88;87.44;94111.16;5065404;28;20044;-52
2022/04/08 06:20:55;;;;;;;1.70;1.15;;;;;;;11.03;87.55;94104.47;5065128;28;20110;-47
2022/04/08 06:23:21;;;;;;;2.15;1.35;;;;;;;11.12;86.91;94102.97;5065204;28;20044;-47
2022/04/08 06:25:48;;;;;;;4.28;0.80;;;;;;;11.25;85.88;94096.53;5066704;28;20048;-48
2022/04/08 06:28:15;;;;;;;2.08;0.85;;;;;;;11.27;86.44;94104.88;5065208;28;20048;-46
2022/04/08 06:30:42;;;;;;;3.22;0.63;;;;;;;11.31;85.09;94110.38;5065153;28;20731;-52
2022/04/08 06:33:09;;;;;;;1.88;1.02;;;;;;;11.40;86.83;94114.09;5064557;28;20770;-47
2022/04/08 06:35:36;;;;;;;2.90;1.00;;;;;;;11.54;86.51;94109.19;5064814;28;20040;-46
2022/04/08 06:38:05;;;;;;;0.95;0.55;;;;;;;11.65;84.02;94122.03;5065727;28;20044;-48
2022/04/08 06:40:37;;;;;;;1.25;0.65;;;;;;;11.81;85.98;94119.47;5064848;28;20067;-48
2022/04/08 06:43:05;;;;;;;1.38;1.02;;;;;;;11.90;84.43;94115.34;5064462;28;20059;-47
2022/04/08 06:45:32;;;;;;;2.97;0.52;;;;;;;11.81;81.61;94114.25;5064459;28;20045;-49
2022/04/08 06:48:00;;;;;;;1.25;0.82;;;;;;;11.87;81.92;94131.50;5064501;28;20521;-49
2022/04/08 06:50:27;;;;;;;2.53;0.85;;;;;;;11.83;81.23;94133.06;5064639;28;20403;-51
2022/04/08 06:52:59;;;;;;;1.55;1.02;;;;;;;11.97;84.58;94134.16;5064700;28;20109;-49
2022/04/08 06:55:27;;;;;;;2.63;1.20;;;;;;;12.15;81.02;94150.41;5063384;28;20068;-47
2022/04/08 06:57:54;;;;;;;0.70;0.40;;;;;;;12.14;78.41;94138.41;5064381;28;20055;-49
2022/04/08 07:00:21;;;;;;;1.13;0.52;;;;;;;12.10;80.29;94145.97;5064645;28;20105;-49
2022/04/08 07:02:48;;;;;;;1.85;0.90;;;;;;;12.13;80.57;94142.06;5062953;28;20059;-45
2022/04/08 07:05:15;;;;;;;8.80;1.95;;;;;;;12.21;79.63;94138.97;5062330;28;20044;-48
2022/04/08 07:07:45;;;;;;;2.40;0.90;;;;;;;12.30;79.72;94147.84;5063094;28;20951;-50
2022/04/08 07:10:12;;;;;;;3.97;0.95;;;;;;;12.34;80.56;94141.06;5063085;28;20051;-51
2022/04/08 07:12:39;;;;;;;4.25;0.90;;;;;;;12.42;78.55;94140.56;5063193;28;20043;-50
2022/04/08 07:15:06;;;;;;;4.22;1.27;;;;;;;12.54;78.86;94142.91;5061467;28;20439;-49
2022/04/08 07:17:35;;;;;;;3.97;0.98;;;;;;;12.63;75.86;94148.41;5064638;28;20938;-48
2022/04/08 07:20:16;;;;;;;0.70;0.30;;;;;;;12.67;70.95;94136.41;5063851;28;20087;-48
2022/04/08 07:22:44;;;;;;;3.53;1.33;;;;;;;12.68;71.57;94143.22;5063462;28;20059;-48
2022/04/08 07:25:12;;;;;;;2.38;0.98;;;;;;;12.84;70.04;94148.41;5064048;28;20047;-51
2022/04/08 07:27:50;;;;;;;2.13;0.88;;;;;;;12.97;69.25;94153.16;5063403;28;20132;-50
2022/04/08 07:30:19;;;;;;;3.30;0.93;;;;;;;13.08;69.25;94167.78;5063865;28;20501;-51
2022/04/08 07:32:48;;;;;;;3.83;1.42;;;;;;;13.23;68.28;94189.72;5061007;28;20058;-49
2022/04/08 07:35:15;;;;;;;2.15;1.10;;;;;;;13.24;66.64;94165.16;5060691;28;20562;-49
2022/04/08 07:37:42;;;;;;;2.63;1.33;;;;;;;13.25;67.21;94177.16;5060901;28;20410;-49
2022/04/08 07:40:11;;;;;;;2.25;1.30;;;;;;;13.30;67.93;94185.00;5060682;28;20048;-48
2022/04/08 07:42:38;;;;;;;1.67;0.85;;;;;;;13.43;66.96;94184.50;5059613;28;20040;-47
2022/04/08 07:45:06;;;;;;;1.58;0.98;;;;;;;13.65;67.09;94186.03;5060661;28;20040;-50
2022/04/08 07:47:34;;;;;;;3.85;1.05;;;;;;;13.62;63.66;94168.25;5061922;28;20044;-51
2022/04/08 07:50:03;;;;;;;0.73;0.52;;;;;;;13.56;65.95;94178.72;5063253;28;20117;-50
2022/04/08 07:52:30;;;;;;;5.07;2.47;;;;;;;13.50;65.70;94192.84;5062588;28;20064;-45
2022/04/08 07:54:56;;;;;;;2.40;1.40;;;;;;;13.71;65.69;94196.22;5062240;28;20074;-46
2022/04/08 07:57:23;;;;;;;3.42;0.90;;;;;;;13.79;64.10;94197.50;5061363;28;20064;-45
2022/04/08 07:59:50;;;;;;;2.10;1.17;;;;;;;13.83;65.63;94203.78;5062193;28;20053;-50
2022/04/08 08:02:17;;;;;;;3.72;1.58;;;;;;;14.12;64.43;94205.81;5061888;28;20044;-47
2022/04/08 08:04:49;;;;;;;1.60;1.48;;;;;;;14.27;63.97;94213.56;5059828;28;20106;-50
2022/04/08 08:07:17;;;;;;;2.78;1.33;;;;;;;14.32;64.32;94216.19;5061382;28;20051;-50
2022/04/08 08:09:43;;;;;;;1.85;1.30;;;;;;;14.34;64.97;94210.66;5062595;28;20036;-45
2022/04/08 08:12:26;;;;;;;2.63;0.73;;;;;;;14.38;62.54;94208.31;5061104;28;20430;-47
2022/04/08 08:14:54;;;;;;;1.23;0.70;;;;;;;14.25;62.62;94202.59;5061114;28;20437;-48
2022/04/08 08:17:21;;;;;;;3.72;1.45;;;;;;;14.27;64.70;94205.72;5062117;28;20509;-46
2022/04/08 08:19:48;;;;;;;3.10;1.52;;;;;;;14.28;64.82;94212.53;5063520;28;20041;-48
2022/04/08 08:22:22;;;;;;;2.42;1.30;;;;;;;14.45;63.91;94235.00;5062066;28;20044;-51
2022/04/08 08:24:49;;;;;;;3.25;1.42;;;;;;;14.50;62.86;94221.88;5062940;28;20901;-49
2022/04/08 08:27:16;;;;;;;3.65;1.45;;;;;;;14.43;62.65;94222.16;5065274;28;20489;-45
2022/04/08 08:29:43;;;;;;;4.50;1.52;;;;;;;14.47;62.16;94223.19;5062373;28;20052;-51
2022/04/08 08:32:10;;;;;;;1.73;1.00;;;;;;;14.52;63.03;94219.75;5062588;28;20059;-49
2022/04/08 08:34:37;;;;;;;1.77;1.10;;;;;;;14.64;61.96;94233.34;5062350;28;20036;-50
2022/04/08 08:37:04;;;;;;;1.52;1.10;;;;;;;14.64;62.51;94235.97;5062547;28;20052;-50
2022/04/08 08:39:30;;;;;;;7.80;1.75;;;;;;;14.79;63.15;94229.84;5062761;28;20102;-51
2022/04/08 08:41:57;;;;;;;3.85;1.38;;;;;;;15.10;62.81;94229.66;5062623;28;20475;-49
2022/04/08 08:44:24;;;;;;;3.17;1.65;;;;;;;15.23;60.36;94238.72;5062351;28;20044;-52
2022/04/08 08:46:52;;;;;;;2.08;1.30;;;;;;;15.17;60.09;94245.09;5063280;28;20498;-48
2022/04/08 08:49:20;;;;;;;6.78;1.33;;;;;;;15.25;60.55;94241.88;5062158;28;20037;-47
2022/04/08 08:51:55;;;;;;;4.13;1.80;;;;;;;15.44;60.82;94244.63;5062130;28;20036;-50
2022/04/08 08:54:22;;;;;;;8.27;2.05;;;;;;;15.66;59.15;94236.28;5061990;28;20508;-46
2022/04/08 08:56:49;;;;;;;2.20;1.27;;;;;;;15.67;58.07;94240.47;5064445;28;20044;-50
2022/04/08 08:59:16;;;;;;;2.50;1.10;;;;;;;15.71;57.46;94249.34;5067029;28;20090;-45
2022/04/08 09:01:48;;;;;;;3.50;0.90;;;;;;;15.80;57.85;94249.56;5067119;28;20064;-52
2022/04/08 09:04:15;;;;;;;10.38;2.50;;;;;;;15.81;58.82;94249.31;5069616;28;20047;-47
2022/04/08 09:06:43;;;;;;;3.38;1.13;;;;;;;15.81;58.92;94256.38;5066913;28;20520;-47
2022/04/08 09:09:13;;;;;;;2.30;1.00;;;;;;;15.85;56.93;94255.56;5067011;28;20036;-49
2022/04/08 09:11:39;;;;;;;1.83;1.00;;;;;;;15.94;57.78;94257.59;5067046;28;20434;-51
2022/04/08 09:14:06;;;;;;;2.40;1.10;;;;;;;16.09;56.30;94254.78;5065210;28;20044;-46
2022/04/08 09:16:39;;;;;;;2.60;1.00;;;;;;;16.15;55.81;94253.69;5066928;28;20052;-45
2022/04/08 09:19:13;;;;;;;2.25;1.67;;;;;;;16.12;55.25;94254.25;5066691;28;20052;-49
2022/04/08 09:21:52;;;;;;;1.75;1.33;;;;;;;16.17;55.70;94250.75;5066560;28;20071;-47
2022/04/08 09:24:23;;;;;;;1.83;0.95;;;;;;;16.14;54.98;94241.59;5066501;28;20107;-48
2022/04/08 09:26:53;;;;;;;3.35;1.30;;;;;;;16.43;55.70;94264.41;5066300;28;20592;-47
2022/04/08 09:29:24;;;;;;;3.47;1.05;;;;;;;16.52;54.64;94244.31;5066645;28;20155;-51
2022/04/08 09:31:52;;;;;;;3.50;1.13;;;;;;;16.62;55.47;94231.03;5066461;28;20044;-50
2022/04/08 09:34:20;;;;;;;1.55;0.95;;;;;;;16.74;52.04;94253.50;5066785;28;20040;-48
2022/04/08 09:36:47;;;;;;;4.22;1.30;;;;;;;16.84;52.26;94237.63;5067690;28;20044;-50
2022/04/08 09:39:14;;;;;;;7.63;1.05;;;;;;;16.85;50.86;94247.06;5066285;28;20120;-51
2022/04/08 09:41:48;;;;;;;3.72;1.85;;;;;;;16.94;50.06;94232.22;5066347;28;20044;-46
2022/04/08 09:44:24;;;;;;;1.60;0.90;;;;;;;16.95;49.46;94225.88;5066588;28;20464;-48
2022/04/08 09:46:51;;;;;;;1.63;1.05;;;;;;;17.09;49.93;94227.81;5067527;28;20044;-48
2022/04/08 09:49:18;;;;;;;2.13;1.05;;;;;;;17.14;50.09;94219.81;5066329;28;20521;-51
2022/04/08 09:51:50;;;;;;;2.38;1.20;;;;;;;17.33;50.24;94222.44;5066468;28;20040;-51
2022/04/08 09:54:21;;;;;;;2.75;0.90;;;;;;;17.48;47.93;94219.53;5065432;28;20044;-49
2022/04/08 09:56:48;;;;;;;2.60;1.02;;;;;;;17.53;47.96;94211.56;5065957;28;20044;-52
2022/04/08 09:59:22;;;;;;;1.63;1.10;;;;;;;17.51;48.56;94218.19;5066125;28;20048;-45
2022/04/08 10:02:11;;;;;;;2.20;1.30;;;;;;;17.82;49.18;94212.41;5065321;28;20469;-48
2022/04/08 10:04:44;;;;;;;4.30;1.35;;;;;;;18.09;46.18;94217.69;5064810;28;20058;-50
2022/04/08 10:07:11;;;;;;;1.20;0.98;;;;;;;18.19;46.29;94226.50;5064276;28;20040;-50
2022/04/08 10:09:48;;;;;;;4.88;1.33;;;;;;;18.01;44.81;94236.06;5062076;28;20505;-48
2022/04/08 10:12:29;;;;;;;2.22;1.10;;;;;;;18.20;43.16;94234.09;5064636;28;20154;-47
2022/04/08 10:15:15;;;;;;;4.75;1.17;;;;;;;18.18;43.84;94240.75;5062891;28;20509;-45
2022/04/08 10:17:42;;;;;;;2.00;0.98;;;;;;;18.20;44.62;94222.78;5064010;28;20056;-51
2022/04/08 10:20:17;;;;;;;2.38;0.80;;;;;;;18.41;43.34;94234.50;5064538;28;20037;-48
2022/04/08 10:22:43;;;;;;;;;;;;;;;18.47;43.40;94219.34;5064348;28;20052;-48
2022/04/08 10:25:18;;;;;;;2.35;0.88;;;;;;;18.65;44.08;94207.09;5061858;28;19959;-48
2022/04/08 10:27:45;;;;;;;3.22;1.00;;;;;;;18.72;41.98;94202.19;5064021;28;20113;-49
2022/04/08 10:30:20;;;;;;;1.10;0.73;;;;;;;18.91;42.57;94221.34;5064024;28;20045;-53
2022/04/08 10:32:59;;;;;;;3.03;0.80;;;;;;;18.90;42.70;94197.88;5063896;28;20059;-49
2022/04/08 10:35:27;;;;;;;1.45;0.57;;;;;;;19.18;41.06;94209.13;5063387;28;20904;-49
2022/04/08 10:37:58;;;;;;;3.03;1.27;;;;;;;19.16;39.20;94211.28;5065715;28;20106;-47
2022/04/08 10:40:51;;;;;;;1.25;0.95;;;;;;;19.07;38.23;94216.50;5062941;28;20074;-50
2022/04/08 10:43:18;;;;;;;3.13;1.08;;;;;;;19.29;39.21;94215.72;5055563;28;20113;-47
2022/04/08 10:45:56;;;;;;;1.70;0.93;;;;;;;19.53;36.42;94214.63;5063835;28;20045;-53
2022/04/08 10:48:31;;;;;;;2.05;0.52;;;;;;;19.61;37.72;94227.09;5063664;28;20064;-47
2022/04/08 10:51:04;;;;;;;1.15;0.68;;;;;;;19.45;37.08;94212.72;5062977;28;20052;-51
2022/04/08 10:53:34;;;;;;;2.20;0.80;;;;;;;19.71;37.85;94220.78;5062127;28;20060;-47
2022/04/08 10:56:13;;;;;;;1.95;0.70;;;;;;;19.76;37.12;94209.34;5062728;28;20052;-50
2022/04/08 10:58:45;;;;;;;1.67;0.70;;;;;;;19.69;37.89;94207.09;5062779;28;20067;-48
2022/04/08 11:01:23;;;;;;;1.00;0.70;;;;;;;19.98;36.94;94209.28;5062324;28;20084;-52
2022/04/08 11:03:59;;;;;;;2.08;0.32;;;;;;;20.31;35.68;94195.72;5063823;28;20183;-51
2022/04/08 11:06:27;;;;;;;1.98;1.20;;;;;;;20.48;35.91;94188.91;5063864;28;20126;-48
2022/04/08 11:08:54;;;;;;;1.88;0.80;;;;;;;20.58;35.09;94188.59;5063715;28;20052;-49
2022/04/08 11:11:32;;;;;;;1.48;0.82;;;;;;;20.59;34.69;94192.81;5063051;28;20041;-49
2022/04/08 11:14:00;;;;;;;2.17;0.80;;;;;;;20.75;34.76;94203.75;5062737;28;20705;-49
2022/04/08 11:16:29;;;;;;;2.75;1.23;;;;;;;20.55;33.09;94191.88;5063836;28;20037;-44
2022/04/08 11:18:56;;;;;;;2.33;0.70;;;;;;;20.69;33.98;94183.81;5064030;28;20046;-45
2022/04/08 11:21:26;;;;;;;0.77;0.52;;;;;;;20.71;32.60;94193.00;5063669;28;20514;-47
2022/04/08 11:24:01;;;;;;;0.57;0.38;;;;;;;20.81;31.52;94182.13;5064358;28;20040;-50
2022/04/08 11:26:29;;;;;;;1.70;0.75;;;;;;;20.78;32.13;94188.03;5062800;28;20069;-49
2022/04/08 11:29:07;;;;;;;1.05;0.50;;;;;;;20.74;31.48;94196.88;5063604;28;20044;-49
2022/04/08 11:31:37;;;;;;;1.10;0.70;;;;;;;20.66;31.67;94174.63;5062130;28;20413;-49
2022/04/08 11:34:05;;;;;;;2.53;0.77;;;;;;;20.72;31.71;94189.25;5065672;28;20052;-48
2022/04/08 11:36:32;;;;;;;1.92;1.00;;;;;;;20.77;30.49;94186.47;5063026;28;20056;-50
2022/04/08 11:38:59;;;;;;;1.58;0.95;;;;;;;21.13;30.72;94188.00;5063662;28;20056;-50